sensor_id;sensor_type;location;lat;lon;timestamp;P1;durP1;ratioP1;P2;durP2;ratioP2
49051;SDS011;34866;48.670;18.260;2023-01-20T00:00:44;3.58;;;2.35;;
49051;SDS011;34866;48.670;18.260;2023-01-20T00:03:25;9.70;;;2.75;;
49051;SDS011;34866;48.670;18.260;2023-01-20T00:06:00;5.05;;;2.30;;
49051;SDS011;34866;48.670;18.260;2023-01-20T00:08:28;8.73;;;3.17;;
49051;SDS011;34866;48.670;18.260;2023-01-20T00:10:53;5.32;;;2.65;;
49051;SDS011;34866;48.670;18.260;2023-01-20T00:13:25;4.72;;;2.10;;
49051;SDS011;34866;48.670;18.260;2023-01-20T00:15:57;7.85;;;2.00;;
49051;SDS011;34866;48.670;18.260;2023-01-20T00:18:29;4.80;;;3.33;;
49051;SDS011;34866;48.670;18.260;2023-01-20T00:21:13;5.07;;;3.13;;
49051;SDS011;34866;48.670;18.260;2023-01-20T00:23:43;5.20;;;2.20;;
49051;SDS011;34866;48.670;18.260;2023-01-20T00:26:11;3.72;;;1.95;;
49051;SDS011;34866;48.670;18.260;2023-01-20T00:28:40;4.20;;;3.13;;
49051;SDS011;34866;48.670;18.260;2023-01-20T00:31:17;3.05;;;1.80;;
49051;SDS011;34866;48.670;18.260;2023-01-20T00:33:45;4.75;;;2.78;;
49051;SDS011;34866;48.670;18.260;2023-01-20T00:36:20;3.63;;;2.22;;
49051;SDS011;34866;48.670;18.260;2023-01-20T00:41:32;5.32;;;1.85;;
49051;SDS011;34866;48.670;18.260;2023-01-20T00:47:10;6.07;;;3.22;;
49051;SDS011;34866;48.670;18.260;2023-01-20T00:49:54;3.63;;;2.65;;
49051;SDS011;34866;48.670;18.260;2023-01-20T00:52:23;5.00;;;2.53;;
49051;SDS011;34866;48.670;18.260;2023-01-20T00:54:49;7.10;;;2.75;;
49051;SDS011;34866;48.670;18.260;2023-01-20T00:57:23;5.70;;;2.80;;
49051;SDS011;34866;48.670;18.260;2023-01-20T00:59:52;6.57;;;3.40;;
49051;SDS011;34866;48.670;18.260;2023-01-20T01:02:24;5.82;;;2.60;;
49051;SDS011;34866;48.670;18.260;2023-01-20T01:04:52;5.55;;;2.72;;
49051;SDS011;34866;48.670;18.260;2023-01-20T01:07:21;5.82;;;3.75;;
49051;SDS011;34866;48.670;18.260;2023-01-20T01:09:50;4.93;;;2.63;;
49051;SDS011;34866;48.670;18.260;2023-01-20T01:12:16;2.67;;;1.90;;
49051;SDS011;34866;48.670;18.260;2023-01-20T01:14:42;4.68;;;2.50;;
49051;SDS011;34866;48.670;18.260;2023-01-20T01:17:11;4.28;;;2.22;;
49051;SDS011;34866;48.670;18.260;2023-01-20T01:19:38;6.00;;;3.13;;
49051;SDS011;34866;48.670;18.260;2023-01-20T01:22:03;8.35;;;4.25;;
49051;SDS011;34866;48.670;18.260;2023-01-20T01:24:29;4.30;;;2.15;;
49051;SDS011;34866;48.670;18.260;2023-01-20T01:26:58;6.22;;;2.53;;
49051;SDS011;34866;48.670;18.260;2023-01-20T01:29:24;5.10;;;2.03;;
49051;SDS011;34866;48.670;18.260;2023-01-20T01:31:49;6.65;;;3.38;;
49051;SDS011;34866;48.670;18.260;2023-01-20T01:34:24;4.05;;;2.85;;
49051;SDS011;34866;48.670;18.260;2023-01-20T01:36:55;11.00;;;3.63;;
49051;SDS011;34866;48.670;18.260;2023-01-20T01:39:22;5.18;;;3.38;;
49051;SDS011;34866;48.670;18.260;2023-01-20T01:41:48;6.93;;;3.35;;
49051;SDS011;34866;48.670;18.260;2023-01-20T01:44:14;8.85;;;3.60;;
49051;SDS011;34866;48.670;18.260;2023-01-20T01:46:44;3.72;;;1.98;;
49051;SDS011;34866;48.670;18.260;2023-01-20T01:49:28;6.55;;;3.17;;
49051;SDS011;34866;48.670;18.260;2023-01-20T01:52:06;5.53;;;3.45;;
49051;SDS011;34866;48.670;18.260;2023-01-20T01:54:35;5.38;;;3.40;;
49051;SDS011;34866;48.670;18.260;2023-01-20T01:57:03;5.43;;;2.75;;
49051;SDS011;34866;48.670;18.260;2023-01-20T01:59:31;7.10;;;3.58;;
49051;SDS011;34866;48.670;18.260;2023-01-20T02:02:00;5.80;;;3.47;;
49051;SDS011;34866;48.670;18.260;2023-01-20T02:04:27;7.63;;;3.55;;
49051;SDS011;34866;48.670;18.260;2023-01-20T02:06:56;7.93;;;2.78;;
49051;SDS011;34866;48.670;18.260;2023-01-20T02:09:35;5.50;;;3.03;;
49051;SDS011;34866;48.670;18.260;2023-01-20T02:12:03;6.38;;;2.92;;
49051;SDS011;34866;48.670;18.260;2023-01-20T02:14:33;6.95;;;3.45;;
49051;SDS011;34866;48.670;18.260;2023-01-20T02:23:02;6.82;;;3.38;;
49051;SDS011;34866;48.670;18.260;2023-01-20T02:28:48;4.97;;;3.42;;
49051;SDS011;34866;48.670;18.260;2023-01-20T02:37:05;8.02;;;3.00;;
49051;SDS011;34866;48.670;18.260;2023-01-20T02:42:15;6.18;;;3.78;;
49051;SDS011;34866;48.670;18.260;2023-01-20T02:45:24;9.43;;;4.07;;
49051;SDS011;34866;48.670;18.260;2023-01-20T02:47:49;10.35;;;3.17;;
49051;SDS011;34866;48.670;18.260;2023-01-20T02:52:58;7.00;;;2.95;;
49051;SDS011;34866;48.670;18.260;2023-01-20T02:58:07;8.65;;;4.22;;
49051;SDS011;34866;48.670;18.260;2023-01-20T03:03:10;9.75;;;3.45;;
49051;SDS011;34866;48.670;18.260;2023-01-20T03:05:40;7.85;;;4.03;;
49051;SDS011;34866;48.670;18.260;2023-01-20T03:08:15;7.55;;;3.90;;
49051;SDS011;34866;48.670;18.260;2023-01-20T03:10:43;8.60;;;4.05;;
49051;SDS011;34866;48.670;18.260;2023-01-20T03:13:19;8.73;;;4.57;;
49051;SDS011;34866;48.670;18.260;2023-01-20T03:16:00;6.18;;;2.88;;
49051;SDS011;34866;48.670;18.260;2023-01-20T03:18:31;6.93;;;3.40;;
49051;SDS011;34866;48.670;18.260;2023-01-20T03:21:04;5.85;;;3.58;;
49051;SDS011;34866;48.670;18.260;2023-01-20T03:23:37;6.85;;;3.65;;
49051;SDS011;34866;48.670;18.260;2023-01-20T03:26:10;5.22;;;2.90;;
49051;SDS011;34866;48.670;18.260;2023-01-20T03:28:39;6.93;;;4.40;;
49051;SDS011;34866;48.670;18.260;2023-01-20T03:31:19;8.90;;;3.80;;
49051;SDS011;34866;48.670;18.260;2023-01-20T03:33:53;10.35;;;5.70;;
49051;SDS011;34866;48.670;18.260;2023-01-20T03:36:22;15.77;;;5.45;;
49051;SDS011;34866;48.670;18.260;2023-01-20T03:38:50;4.15;;;3.47;;
49051;SDS011;34866;48.670;18.260;2023-01-20T03:50:05;10.32;;;4.90;;
49051;SDS011;34866;48.670;18.260;2023-01-20T03:56:17;4.95;;;3.67;;
49051;SDS011;34866;48.670;18.260;2023-01-20T03:59:02;8.10;;;3.80;;
49051;SDS011;34866;48.670;18.260;2023-01-20T04:01:30;5.85;;;3.25;;
49051;SDS011;34866;48.670;18.260;2023-01-20T04:04:04;4.43;;;3.13;;
49051;SDS011;34866;48.670;18.260;2023-01-20T04:06:35;7.03;;;4.10;;
49051;SDS011;34866;48.670;18.260;2023-01-20T04:12:00;8.82;;;4.03;;
49051;SDS011;34866;48.670;18.260;2023-01-20T04:14:29;11.05;;;5.47;;
49051;SDS011;34866;48.670;18.260;2023-01-20T04:16:55;8.68;;;4.65;;
49051;SDS011;34866;48.670;18.260;2023-01-20T04:19:22;15.55;;;5.30;;
49051;SDS011;34866;48.670;18.260;2023-01-20T04:21:52;8.75;;;4.53;;
49051;SDS011;34866;48.670;18.260;2023-01-20T04:24:42;10.27;;;4.20;;
49051;SDS011;34866;48.670;18.260;2023-01-20T04:27:15;7.28;;;3.90;;
49051;SDS011;34866;48.670;18.260;2023-01-20T04:29:41;5.97;;;2.83;;
49051;SDS011;34866;48.670;18.260;2023-01-20T04:32:08;6.38;;;3.25;;
49051;SDS011;34866;48.670;18.260;2023-01-20T04:34:36;8.38;;;4.75;;
49051;SDS011;34866;48.670;18.260;2023-01-20T04:37:05;7.68;;;3.83;;
49051;SDS011;34866;48.670;18.260;2023-01-20T04:39:32;7.40;;;3.55;;
49051;SDS011;34866;48.670;18.260;2023-01-20T04:42:00;8.57;;;4.18;;
49051;SDS011;34866;48.670;18.260;2023-01-20T04:44:26;4.40;;;2.85;;
49051;SDS011;34866;48.670;18.260;2023-01-20T04:46:58;6.47;;;3.28;;
49051;SDS011;34866;48.670;18.260;2023-01-20T04:49:27;10.55;;;4.00;;
49051;SDS011;34866;48.670;18.260;2023-01-20T04:51:52;6.65;;;3.72;;
49051;SDS011;34866;48.670;18.260;2023-01-20T04:54:21;6.80;;;3.22;;
49051;SDS011;34866;48.670;18.260;2023-01-20T04:56:47;8.40;;;3.22;;
49051;SDS011;34866;48.670;18.260;2023-01-20T04:59:13;8.23;;;3.22;;
49051;SDS011;34866;48.670;18.260;2023-01-20T05:01:38;5.30;;;2.97;;
49051;SDS011;34866;48.670;18.260;2023-01-20T05:04:04;9.05;;;3.38;;
49051;SDS011;34866;48.670;18.260;2023-01-20T05:06:36;5.60;;;3.33;;
49051;SDS011;34866;48.670;18.260;2023-01-20T05:09:04;7.47;;;3.40;;
49051;SDS011;34866;48.670;18.260;2023-01-20T05:11:30;5.22;;;3.25;;
49051;SDS011;34866;48.670;18.260;2023-01-20T05:13:56;7.90;;;4.47;;
49051;SDS011;34866;48.670;18.260;2023-01-20T05:16:22;7.15;;;4.03;;
49051;SDS011;34866;48.670;18.260;2023-01-20T05:18:59;5.70;;;2.80;;
49051;SDS011;34866;48.670;18.260;2023-01-20T05:21:25;6.18;;;3.63;;
49051;SDS011;34866;48.670;18.260;2023-01-20T05:23:54;8.32;;;3.85;;
49051;SDS011;34866;48.670;18.260;2023-01-20T05:26:22;10.65;;;3.53;;
49051;SDS011;34866;48.670;18.260;2023-01-20T05:28:48;8.25;;;3.90;;
49051;SDS011;34866;48.670;18.260;2023-01-20T05:31:17;10.75;;;3.33;;
49051;SDS011;34866;48.670;18.260;2023-01-20T05:33:43;10.65;;;6.05;;
49051;SDS011;34866;48.670;18.260;2023-01-20T05:36:12;6.50;;;3.88;;
49051;SDS011;34866;48.670;18.260;2023-01-20T05:38:37;8.60;;;4.13;;
49051;SDS011;34866;48.670;18.260;2023-01-20T05:41:06;11.50;;;2.80;;
49051;SDS011;34866;48.670;18.260;2023-01-20T05:43:39;8.38;;;5.50;;
49051;SDS011;34866;48.670;18.260;2023-01-20T05:46:08;6.90;;;4.13;;
49051;SDS011;34866;48.670;18.260;2023-01-20T05:48:33;8.32;;;4.05;;
49051;SDS011;34866;48.670;18.260;2023-01-20T05:51:00;7.60;;;3.22;;
49051;SDS011;34866;48.670;18.260;2023-01-20T05:53:26;12.45;;;4.50;;
49051;SDS011;34866;48.670;18.260;2023-01-20T05:56:04;12.50;;;5.15;;
49051;SDS011;34866;48.670;18.260;2023-01-20T05:58:30;46.00;;;5.50;;
49051;SDS011;34866;48.670;18.260;2023-01-20T06:01:04;8.40;;;3.95;;
49051;SDS011;34866;48.670;18.260;2023-01-20T06:03:36;7.30;;;3.33;;
49051;SDS011;34866;48.670;18.260;2023-01-20T06:06:09;11.60;;;5.70;;
49051;SDS011;34866;48.670;18.260;2023-01-20T06:08:44;11.38;;;5.43;;
49051;SDS011;34866;48.670;18.260;2023-01-20T06:11:10;9.32;;;5.50;;
49051;SDS011;34866;48.670;18.260;2023-01-20T06:13:48;10.60;;;4.75;;
49051;SDS011;34866;48.670;18.260;2023-01-20T06:16:15;8.80;;;4.80;;
49051;SDS011;34866;48.670;18.260;2023-01-20T06:18:44;9.13;;;5.22;;
49051;SDS011;34866;48.670;18.260;2023-01-20T06:21:10;10.70;;;6.78;;
49051;SDS011;34866;48.670;18.260;2023-01-20T06:23:36;11.15;;;5.60;;
49051;SDS011;34866;48.670;18.260;2023-01-20T06:26:03;9.40;;;4.13;;
49051;SDS011;34866;48.670;18.260;2023-01-20T06:28:30;11.75;;;5.05;;
49051;SDS011;34866;48.670;18.260;2023-01-20T06:33:45;9.23;;;5.18;;
49051;SDS011;34866;48.670;18.260;2023-01-20T06:36:17;7.53;;;4.00;;
49051;SDS011;34866;48.670;18.260;2023-01-20T06:38:43;11.85;;;6.43;;
49051;SDS011;34866;48.670;18.260;2023-01-20T06:41:20;10.38;;;4.25;;
49051;SDS011;34866;48.670;18.260;2023-01-20T06:43:49;11.18;;;6.30;;
49051;SDS011;34866;48.670;18.260;2023-01-20T06:46:15;12.55;;;6.60;;
49051;SDS011;34866;48.670;18.260;2023-01-20T06:48:41;11.15;;;6.20;;
49051;SDS011;34866;48.670;18.260;2023-01-20T06:51:10;9.57;;;5.15;;
49051;SDS011;34866;48.670;18.260;2023-01-20T06:53:44;7.35;;;4.30;;
49051;SDS011;34866;48.670;18.260;2023-01-20T06:56:11;15.68;;;6.05;;
49051;SDS011;34866;48.670;18.260;2023-01-20T06:58:38;18.15;;;6.88;;
49051;SDS011;34866;48.670;18.260;2023-01-20T07:01:06;8.45;;;4.18;;
49051;SDS011;34866;48.670;18.260;2023-01-20T07:03:38;11.82;;;4.95;;
49051;SDS011;34866;48.670;18.260;2023-01-20T07:06:48;9.32;;;4.90;;
49051;SDS011;34866;48.670;18.260;2023-01-20T07:08:57;11.13;;;6.20;;
49051;SDS011;34866;48.670;18.260;2023-01-20T07:11:26;14.90;;;7.50;;
49051;SDS011;34866;48.670;18.260;2023-01-20T07:13:51;7.97;;;4.25;;
49051;SDS011;34866;48.670;18.260;2023-01-20T07:16:18;10.90;;;5.15;;
49051;SDS011;34866;48.670;18.260;2023-01-20T07:18:48;17.10;;;5.55;;
49051;SDS011;34866;48.670;18.260;2023-01-20T07:21:16;13.48;;;5.75;;
49051;SDS011;34866;48.670;18.260;2023-01-20T07:24:04;9.82;;;5.07;;
49051;SDS011;34866;48.670;18.260;2023-01-20T07:26:30;10.82;;;5.45;;
49051;SDS011;34866;48.670;18.260;2023-01-20T07:28:57;14.25;;;6.07;;
49051;SDS011;34866;48.670;18.260;2023-01-20T07:31:24;18.10;;;7.05;;
49051;SDS011;34866;48.670;18.260;2023-01-20T07:33:54;13.40;;;5.90;;
49051;SDS011;34866;48.670;18.260;2023-01-20T07:38:52;17.60;;;6.50;;
49051;SDS011;34866;48.670;18.260;2023-01-20T07:41:18;12.07;;;6.55;;
49051;SDS011;34866;48.670;18.260;2023-01-20T07:43:46;13.18;;;6.43;;
49051;SDS011;34866;48.670;18.260;2023-01-20T07:46:13;14.23;;;7.38;;
49051;SDS011;34866;48.670;18.260;2023-01-20T07:48:42;13.77;;;5.57;;
49051;SDS011;34866;48.670;18.260;2023-01-20T07:51:11;17.60;;;6.22;;
49051;SDS011;34866;48.670;18.260;2023-01-20T07:56:24;9.55;;;5.38;;
49051;SDS011;34866;48.670;18.260;2023-01-20T07:58:51;11.82;;;5.50;;
49051;SDS011;34866;48.670;18.260;2023-01-20T08:01:23;12.95;;;5.10;;
49051;SDS011;34866;48.670;18.260;2023-01-20T08:03:54;14.27;;;6.35;;
49051;SDS011;34866;48.670;18.260;2023-01-20T08:06:24;12.07;;;5.75;;
49051;SDS011;34866;48.670;18.260;2023-01-20T08:08:54;11.75;;;6.07;;
49051;SDS011;34866;48.670;18.260;2023-01-20T08:11:20;11.15;;;6.43;;
49051;SDS011;34866;48.670;18.260;2023-01-20T08:14:01;13.02;;;6.60;;
49051;SDS011;34866;48.670;18.260;2023-01-20T08:16:39;10.10;;;5.40;;
49051;SDS011;34866;48.670;18.260;2023-01-20T08:19:07;10.57;;;6.07;;
49051;SDS011;34866;48.670;18.260;2023-01-20T08:21:33;13.00;;;6.00;;
49051;SDS011;34866;48.670;18.260;2023-01-20T08:24:00;17.90;;;9.30;;
49051;SDS011;34866;48.670;18.260;2023-01-20T08:26:28;15.80;;;6.88;;
49051;SDS011;34866;48.670;18.260;2023-01-20T08:29:02;14.60;;;6.85;;
49051;SDS011;34866;48.670;18.260;2023-01-20T08:31:33;13.07;;;6.30;;
49051;SDS011;34866;48.670;18.260;2023-01-20T08:34:09;16.55;;;8.15;;
49051;SDS011;34866;48.670;18.260;2023-01-20T08:36:42;11.30;;;6.93;;
49051;SDS011;34866;48.670;18.260;2023-01-20T08:39:10;17.20;;;7.00;;
49051;SDS011;34866;48.670;18.260;2023-01-20T08:41:38;11.48;;;4.97;;
49051;SDS011;34866;48.670;18.260;2023-01-20T08:44:07;12.27;;;6.20;;
49051;SDS011;34866;48.670;18.260;2023-01-20T08:46:35;13.82;;;6.82;;
49051;SDS011;34866;48.670;18.260;2023-01-20T08:49:05;14.55;;;6.03;;
49051;SDS011;34866;48.670;18.260;2023-01-20T08:51:42;12.55;;;7.22;;
49051;SDS011;34866;48.670;18.260;2023-01-20T08:54:12;15.40;;;7.72;;
49051;SDS011;34866;48.670;18.260;2023-01-20T08:56:41;15.15;;;8.52;;
49051;SDS011;34866;48.670;18.260;2023-01-20T08:59:10;12.95;;;7.45;;
49051;SDS011;34866;48.670;18.260;2023-01-20T09:01:36;14.68;;;6.75;;
49051;SDS011;34866;48.670;18.260;2023-01-20T09:04:02;11.52;;;6.40;;
49051;SDS011;34866;48.670;18.260;2023-01-20T09:06:36;12.50;;;6.35;;
49051;SDS011;34866;48.670;18.260;2023-01-20T09:09:19;15.50;;;6.63;;
49051;SDS011;34866;48.670;18.260;2023-01-20T09:11:46;21.08;;;8.15;;
49051;SDS011;34866;48.670;18.260;2023-01-20T09:14:19;15.57;;;7.95;;
49051;SDS011;34866;48.670;18.260;2023-01-20T09:16:50;17.33;;;6.93;;
49051;SDS011;34866;48.670;18.260;2023-01-20T09:19:19;19.85;;;8.82;;
49051;SDS011;34866;48.670;18.260;2023-01-20T09:21:51;16.30;;;8.90;;
49051;SDS011;34866;48.670;18.260;2023-01-20T09:24:16;18.05;;;9.13;;
49051;SDS011;34866;48.670;18.260;2023-01-20T09:26:42;20.88;;;10.75;;
49051;SDS011;34866;48.670;18.260;2023-01-20T09:29:21;26.38;;;10.60;;
49051;SDS011;34866;48.670;18.260;2023-01-20T09:31:52;24.30;;;11.57;;
49051;SDS011;34866;48.670;18.260;2023-01-20T09:34:22;23.45;;;11.73;;
49051;SDS011;34866;48.670;18.260;2023-01-20T09:36:55;21.90;;;10.73;;
49051;SDS011;34866;48.670;18.260;2023-01-20T09:39:34;27.88;;;12.25;;
49051;SDS011;34866;48.670;18.260;2023-01-20T09:42:30;21.70;;;10.20;;
49051;SDS011;34866;48.670;18.260;2023-01-20T09:45:30;24.30;;;12.00;;
49051;SDS011;34866;48.670;18.260;2023-01-20T09:48:12;20.65;;;11.48;;
49051;SDS011;34866;48.670;18.260;2023-01-20T09:51:06;22.30;;;10.63;;
49051;SDS011;34866;48.670;18.260;2023-01-20T09:54:07;20.90;;;11.40;;
49051;SDS011;34866;48.670;18.260;2023-01-20T09:56:58;20.35;;;10.30;;
49051;SDS011;34866;48.670;18.260;2023-01-20T09:59:35;17.77;;;9.15;;
49051;SDS011;34866;48.670;18.260;2023-01-20T10:02:10;17.58;;;9.18;;
49051;SDS011;34866;48.670;18.260;2023-01-20T10:04:47;27.40;;;10.13;;
49051;SDS011;34866;48.670;18.260;2023-01-20T10:07:38;17.33;;;8.55;;
49051;SDS011;34866;48.670;18.260;2023-01-20T10:10:18;20.20;;;8.45;;
49051;SDS011;34866;48.670;18.260;2023-01-20T10:12:51;15.82;;;8.35;;
49051;SDS011;34866;48.670;18.260;2023-01-20T10:15:29;14.40;;;8.00;;
49051;SDS011;34866;48.670;18.260;2023-01-20T10:23:45;17.35;;;8.10;;
49051;SDS011;34866;48.670;18.260;2023-01-20T10:29:08;22.15;;;8.98;;
49051;SDS011;34866;48.670;18.260;2023-01-20T10:32:00;15.30;;;6.57;;
49051;SDS011;34866;48.670;18.260;2023-01-20T10:34:36;15.82;;;7.22;;
49051;SDS011;34866;48.670;18.260;2023-01-20T10:37:12;13.38;;;7.22;;
49051;SDS011;34866;48.670;18.260;2023-01-20T10:39:58;20.70;;;8.68;;
49051;SDS011;34866;48.670;18.260;2023-01-20T10:42:36;15.20;;;7.00;;
49051;SDS011;34866;48.670;18.260;2023-01-20T10:45:17;16.33;;;6.93;;
49051;SDS011;34866;48.670;18.260;2023-01-20T10:51:06;14.60;;;7.38;;
49051;SDS011;34866;48.670;18.260;2023-01-20T10:57:12;8.85;;;5.10;;
49051;SDS011;34866;48.670;18.260;2023-01-20T10:59:54;13.45;;;6.38;;
49051;SDS011;34866;48.670;18.260;2023-01-20T11:02:25;19.25;;;5.95;;
49051;SDS011;34866;48.670;18.260;2023-01-20T11:05:02;12.23;;;5.35;;
49051;SDS011;34866;48.670;18.260;2023-01-20T11:07:34;11.38;;;4.43;;
49051;SDS011;34866;48.670;18.260;2023-01-20T11:10:11;10.82;;;4.80;;
49051;SDS011;34866;48.670;18.260;2023-01-20T11:12:44;8.75;;;4.38;;
49051;SDS011;34866;48.670;18.260;2023-01-20T11:15:21;9.13;;;5.35;;
49051;SDS011;34866;48.670;18.260;2023-01-20T11:20:50;14.85;;;6.25;;
49051;SDS011;34866;48.670;18.260;2023-01-20T11:23:38;21.70;;;8.02;;
49051;SDS011;34866;48.670;18.260;2023-01-20T11:26:07;13.30;;;6.55;;
49051;SDS011;34866;48.670;18.260;2023-01-20T11:31:48;11.15;;;5.72;;
49051;SDS011;34866;48.670;18.260;2023-01-20T11:39:38;15.90;;;6.10;;
49051;SDS011;34866;48.670;18.260;2023-01-20T11:44:59;11.30;;;7.00;;
49051;SDS011;34866;48.670;18.260;2023-01-20T11:47:36;10.90;;;5.55;;
49051;SDS011;34866;48.670;18.260;2023-01-20T11:52:40;9.48;;;4.80;;
49051;SDS011;34866;48.670;18.260;2023-01-20T11:55:09;14.43;;;6.30;;
49051;SDS011;34866;48.670;18.260;2023-01-20T11:57:44;12.15;;;5.35;;
49051;SDS011;34866;48.670;18.260;2023-01-20T12:03:03;11.38;;;5.35;;
49051;SDS011;34866;48.670;18.260;2023-01-20T12:11:44;12.32;;;4.65;;
49051;SDS011;34866;48.670;18.260;2023-01-20T12:19:58;14.07;;;7.53;;
49051;SDS011;34866;48.670;18.260;2023-01-20T12:22:47;11.57;;;6.13;;
49051;SDS011;34866;48.670;18.260;2023-01-20T12:25:24;11.88;;;5.90;;
49051;SDS011;34866;48.670;18.260;2023-01-20T12:28:00;15.45;;;6.38;;
49051;SDS011;34866;48.670;18.260;2023-01-20T12:33:33;9.45;;;5.88;;
49051;SDS011;34866;48.670;18.260;2023-01-20T12:36:10;12.98;;;5.40;;
49051;SDS011;34866;48.670;18.260;2023-01-20T12:38:56;10.50;;;5.55;;
49051;SDS011;34866;48.670;18.260;2023-01-20T12:44:35;13.10;;;5.40;;
49051;SDS011;34866;48.670;18.260;2023-01-20T12:50:31;12.40;;;5.03;;
49051;SDS011;34866;48.670;18.260;2023-01-20T12:55:47;11.13;;;5.35;;
49051;SDS011;34866;48.670;18.260;2023-01-20T13:12:40;10.27;;;5.63;;
49051;SDS011;34866;48.670;18.260;2023-01-20T13:21:02;14.55;;;5.45;;
49051;SDS011;34866;48.670;18.260;2023-01-20T13:23:32;13.73;;;6.22;;
49051;SDS011;34866;48.670;18.260;2023-01-20T13:26:00;22.02;;;6.97;;
49051;SDS011;34866;48.670;18.260;2023-01-20T13:28:29;15.75;;;6.28;;
49051;SDS011;34866;48.670;18.260;2023-01-20T13:30:56;11.57;;;5.40;;
49051;SDS011;34866;48.670;18.260;2023-01-20T13:33:39;17.55;;;7.65;;
49051;SDS011;34866;48.670;18.260;2023-01-20T13:38:41;20.42;;;7.40;;
49051;SDS011;34866;48.670;18.260;2023-01-20T13:41:08;13.75;;;7.25;;
49051;SDS011;34866;48.670;18.260;2023-01-20T13:43:35;9.55;;;5.38;;
49051;SDS011;34866;48.670;18.260;2023-01-20T13:48:42;15.57;;;7.78;;
49051;SDS011;34866;48.670;18.260;2023-01-20T13:59:59;15.10;;;8.88;;
49051;SDS011;34866;48.670;18.260;2023-01-20T14:02:25;14.10;;;7.45;;
49051;SDS011;34866;48.670;18.260;2023-01-20T14:04:54;16.73;;;6.88;;
49051;SDS011;34866;48.670;18.260;2023-01-20T14:07:29;17.48;;;7.30;;
49051;SDS011;34866;48.670;18.260;2023-01-20T14:09:57;23.65;;;8.82;;
49051;SDS011;34866;48.670;18.260;2023-01-20T14:12:27;16.50;;;7.00;;
49051;SDS011;34866;48.670;18.260;2023-01-20T14:14:52;17.38;;;8.35;;
49051;SDS011;34866;48.670;18.260;2023-01-20T14:17:19;18.23;;;9.50;;
49051;SDS011;34866;48.670;18.260;2023-01-20T14:19:52;24.00;;;10.18;;
49051;SDS011;34866;48.670;18.260;2023-01-20T14:22:22;25.95;;;8.88;;
49051;SDS011;34866;48.670;18.260;2023-01-20T14:24:48;18.73;;;7.70;;
49051;SDS011;34866;48.670;18.260;2023-01-20T14:27:24;22.92;;;8.88;;
49051;SDS011;34866;48.670;18.260;2023-01-20T14:29:53;26.30;;;11.30;;
49051;SDS011;34866;48.670;18.260;2023-01-20T14:35:01;16.63;;;8.50;;
49051;SDS011;34866;48.670;18.260;2023-01-20T14:37:37;15.63;;;8.38;;
49051;SDS011;34866;48.670;18.260;2023-01-20T14:43:02;17.52;;;9.00;;
49051;SDS011;34866;48.670;18.260;2023-01-20T14:45:40;20.10;;;8.63;;
49051;SDS011;34866;48.670;18.260;2023-01-20T14:48:09;19.27;;;8.80;;
49051;SDS011;34866;48.670;18.260;2023-01-20T14:50:37;26.52;;;10.73;;
49051;SDS011;34866;48.670;18.260;2023-01-20T14:53:03;17.15;;;8.15;;
49051;SDS011;34866;48.670;18.260;2023-01-20T14:55:35;26.35;;;10.52;;
49051;SDS011;34866;48.670;18.260;2023-01-20T14:58:17;24.63;;;11.52;;
49051;SDS011;34866;48.670;18.260;2023-01-20T15:00:49;24.30;;;8.18;;
49051;SDS011;34866;48.670;18.260;2023-01-20T15:03:27;19.80;;;8.07;;
49051;SDS011;34866;48.670;18.260;2023-01-20T15:16:24;13.77;;;6.25;;
49051;SDS011;34866;48.670;18.260;2023-01-20T15:21:37;16.90;;;8.07;;
49051;SDS011;34866;48.670;18.260;2023-01-20T15:26:45;20.92;;;8.00;;
49051;SDS011;34866;48.670;18.260;2023-01-20T15:29:18;15.82;;;7.22;;
49051;SDS011;34866;48.670;18.260;2023-01-20T15:31:54;14.10;;;7.00;;
49051;SDS011;34866;48.670;18.260;2023-01-20T15:34:21;19.00;;;7.50;;
49051;SDS011;34866;48.670;18.260;2023-01-20T15:36:54;14.40;;;7.75;;
49051;SDS011;34866;48.670;18.260;2023-01-20T15:39:24;15.88;;;6.80;;
49051;SDS011;34866;48.670;18.260;2023-01-20T15:41:53;19.52;;;7.75;;
49051;SDS011;34866;48.670;18.260;2023-01-20T15:44:19;15.73;;;7.50;;
49051;SDS011;34866;48.670;18.260;2023-01-20T15:46:45;15.60;;;9.23;;
49051;SDS011;34866;48.670;18.260;2023-01-20T15:49:12;16.30;;;7.78;;
49051;SDS011;34866;48.670;18.260;2023-01-20T15:51:41;17.80;;;7.35;;
49051;SDS011;34866;48.670;18.260;2023-01-20T15:54:07;15.38;;;7.63;;
49051;SDS011;34866;48.670;18.260;2023-01-20T15:56:38;17.98;;;6.22;;
49051;SDS011;34866;48.670;18.260;2023-01-20T15:59:12;15.20;;;7.07;;
49051;SDS011;34866;48.670;18.260;2023-01-20T16:01:42;17.60;;;7.18;;
49051;SDS011;34866;48.670;18.260;2023-01-20T16:04:13;12.32;;;6.18;;
49051;SDS011;34866;48.670;18.260;2023-01-20T16:06:39;15.75;;;7.35;;
49051;SDS011;34866;48.670;18.260;2023-01-20T16:12:03;16.38;;;7.03;;
49051;SDS011;34866;48.670;18.260;2023-01-20T16:14:29;12.88;;;7.40;;
49051;SDS011;34866;48.670;18.260;2023-01-20T16:16:54;16.38;;;8.40;;
49051;SDS011;34866;48.670;18.260;2023-01-20T16:19:20;15.43;;;7.65;;
49051;SDS011;34866;48.670;18.260;2023-01-20T16:21:45;18.33;;;8.02;;
49051;SDS011;34866;48.670;18.260;2023-01-20T16:24:11;21.23;;;7.72;;
49051;SDS011;34866;48.670;18.260;2023-01-20T16:26:37;13.77;;;6.88;;
49051;SDS011;34866;48.670;18.260;2023-01-20T16:29:03;19.48;;;7.20;;
49051;SDS011;34866;48.670;18.260;2023-01-20T16:31:29;21.88;;;8.63;;
49051;SDS011;34866;48.670;18.260;2023-01-20T16:33:56;19.05;;;8.40;;
49051;SDS011;34866;48.670;18.260;2023-01-20T16:36:22;15.68;;;8.52;;
49051;SDS011;34866;48.670;18.260;2023-01-20T16:38:49;16.05;;;7.82;;
49051;SDS011;34866;48.670;18.260;2023-01-20T16:43:41;22.35;;;8.93;;
49051;SDS011;34866;48.670;18.260;2023-01-20T16:46:14;14.68;;;7.68;;
49051;SDS011;34866;48.670;18.260;2023-01-20T16:48:47;15.75;;;7.78;;
49051;SDS011;34866;48.670;18.260;2023-01-20T16:51:18;22.65;;;7.65;;
49051;SDS011;34866;48.670;18.260;2023-01-20T16:53:46;21.08;;;8.55;;
49051;SDS011;34866;48.670;18.260;2023-01-20T16:56:16;24.00;;;8.40;;
49051;SDS011;34866;48.670;18.260;2023-01-20T16:58:47;12.80;;;6.70;;
49051;SDS011;34866;48.670;18.260;2023-01-20T17:01:14;14.90;;;6.75;;
49051;SDS011;34866;48.670;18.260;2023-01-20T17:03:45;22.50;;;8.68;;
49051;SDS011;34866;48.670;18.260;2023-01-20T17:06:11;18.45;;;7.10;;
49051;SDS011;34866;48.670;18.260;2023-01-20T17:08:42;16.00;;;6.55;;
49051;SDS011;34866;48.670;18.260;2023-01-20T17:11:31;19.00;;;7.28;;
49051;SDS011;34866;48.670;18.260;2023-01-20T17:14:04;15.30;;;6.75;;
49051;SDS011;34866;48.670;18.260;2023-01-20T17:16:30;15.93;;;8.68;;
49051;SDS011;34866;48.670;18.260;2023-01-20T17:18:57;18.50;;;7.40;;
49051;SDS011;34866;48.670;18.260;2023-01-20T17:21:25;17.73;;;5.95;;
49051;SDS011;34866;48.670;18.260;2023-01-20T17:23:55;19.73;;;7.72;;
49051;SDS011;34866;48.670;18.260;2023-01-20T17:26:25;16.85;;;8.40;;
49051;SDS011;34866;48.670;18.260;2023-01-20T17:28:55;18.83;;;6.82;;
49051;SDS011;34866;48.670;18.260;2023-01-20T17:31:22;12.65;;;5.47;;
49051;SDS011;34866;48.670;18.260;2023-01-20T17:33:48;13.07;;;5.35;;
49051;SDS011;34866;48.670;18.260;2023-01-20T17:36:14;18.67;;;6.97;;
49051;SDS011;34866;48.670;18.260;2023-01-20T17:38:40;14.55;;;6.18;;
49051;SDS011;34866;48.670;18.260;2023-01-20T17:41:07;19.55;;;7.03;;
49051;SDS011;34866;48.670;18.260;2023-01-20T17:43:35;11.18;;;5.10;;